sensor_id;sensor_type;location;lat;lon;timestamp;pressure;altitude;pressure_sealevel;temperature;humidity
43621;BME280;29213;50.770;7.298;2022-09-23T00:01:32;101151.28;;;7.35;57.52
43621;BME280;29213;50.770;7.298;2022-09-23T00:03:58;101193.00;;;7.54;57.71
43621;BME280;29213;50.770;7.298;2022-09-23T00:06:25;101192.13;;;7.54;57.64
43621;BME280;29213;50.770;7.298;2022-09-23T00:08:53;101172.78;;;7.42;57.77
43621;BME280;29213;50.770;7.298;2022-09-23T00:11:24;101098.97;;;6.94;58.04
43621;BME280;29213;50.770;7.298;2022-09-23T00:13:53;101154.00;;;7.23;57.86
43621;BME280;29213;50.770;7.298;2022-09-23T00:16:22;101198.34;;;7.43;57.78
43621;BME280;29213;50.770;7.298;2022-09-23T00:18:48;101166.28;;;7.25;58.00
43621;BME280;29213;50.770;7.298;2022-09-23T00:21:18;101172.03;;;7.30;57.80
43621;BME280;29213;50.770;7.298;2022-09-23T00:23:44;101171.19;;;7.29;58.02
43621;BME280;29213;50.770;7.298;2022-09-23T00:26:12;101127.09;;;7.07;58.19
43621;BME280;29213;50.770;7.298;2022-09-23T00:28:38;101170.41;;;7.39;58.39
43621;BME280;29213;50.770;7.298;2022-09-23T00:31:19;101173.91;;;7.39;58.55
43621;BME280;29213;50.770;7.298;2022-09-23T00:33:45;101140.19;;;7.20;58.22
43621;BME280;29213;50.770;7.298;2022-09-23T00:36:13;101138.63;;;7.17;58.66
43621;BME280;29213;50.770;7.298;2022-09-23T00:38:43;101163.69;;;7.34;58.23
43621;BME280;29213;50.770;7.298;2022-09-23T00:41:08;101159.38;;;7.33;58.47
43621;BME280;29213;50.770;7.298;2022-09-23T00:43:49;101118.56;;;7.03;58.78
43621;BME280;29213;50.770;7.298;2022-09-23T00:46:25;101144.50;;;7.21;58.88
43621;BME280;29213;50.770;7.298;2022-09-23T00:48:57;101160.91;;;7.36;58.64
43621;BME280;29213;50.770;7.298;2022-09-23T00:51:28;101080.34;;;6.85;58.64
43621;BME280;29213;50.770;7.298;2022-09-23T00:53:56;101116.22;;;7.10;58.55
43621;BME280;29213;50.770;7.298;2022-09-23T00:56:22;101024.28;;;6.58;58.45
43621;BME280;29213;50.770;7.298;2022-09-23T00:58:49;101107.47;;;7.09;58.67
43621;BME280;29213;50.770;7.298;2022-09-23T01:01:15;101132.53;;;7.27;58.63
43621;BME280;29213;50.770;7.298;2022-09-23T01:03:43;101138.03;;;7.35;58.66
43621;BME280;29213;50.770;7.298;2022-09-23T01:06:10;101143.47;;;7.33;58.81
43621;BME280;29213;50.770;7.298;2022-09-23T01:08:36;101091.81;;;7.06;59.06
43621;BME280;29213;50.770;7.298;2022-09-23T01:11:26;101103.00;;;7.10;58.96
43621;BME280;29213;50.770;7.298;2022-09-23T01:17:13;101096.34;;;7.16;59.11
43621;BME280;29213;50.770;7.298;2022-09-23T01:20:05;101120.72;;;7.31;58.85
43621;BME280;29213;50.770;7.298;2022-09-23T01:33:51;101092.03;;;7.15;59.12
43621;BME280;29213;50.770;7.298;2022-09-23T01:36:48;101102.47;;;7.16;59.22
43621;BME280;29213;50.770;7.298;2022-09-23T01:39:33;101102.75;;;7.13;59.16
43621;BME280;29213;50.770;7.298;2022-09-23T01:42:12;101085.09;;;7.02;59.00
43621;BME280;29213;50.770;7.298;2022-09-23T01:44:50;101063.38;;;6.87;59.14
43621;BME280;29213;50.770;7.298;2022-09-23T01:47:24;101093.94;;;7.13;59.07
43621;BME280;29213;50.770;7.298;2022-09-23T01:50:00;101117.72;;;7.24;59.12
43621;BME280;29213;50.770;7.298;2022-09-23T01:52:36;101076.44;;;7.00;58.74
43621;BME280;29213;50.770;7.298;2022-09-23T01:55:16;101110.75;;;7.23;59.14
43621;BME280;29213;50.770;7.298;2022-09-23T01:57:47;101118.81;;;7.21;59.01
43621;BME280;29213;50.770;7.298;2022-09-23T02:00:16;101083.94;;;6.95;58.53
43621;BME280;29213;50.770;7.298;2022-09-23T02:02:52;101128.84;;;7.18;58.68
43621;BME280;29213;50.770;7.298;2022-09-23T02:05:28;101107.25;;;7.01;58.64
43621;BME280;29213;50.770;7.298;2022-09-23T02:08:07;101087.78;;;6.91;58.84
43621;BME280;29213;50.770;7.298;2022-09-23T02:10:45;101103.78;;;7.01;58.79
43621;BME280;29213;50.770;7.298;2022-09-23T02:13:30;101085.13;;;6.91;59.19
43621;BME280;29213;50.770;7.298;2022-09-23T02:16:00;101107.25;;;7.01;59.30
43621;BME280;29213;50.770;7.298;2022-09-23T02:18:33;101103.63;;;7.02;59.17
43621;BME280;29213;50.770;7.298;2022-09-23T02:21:05;101101.94;;;7.01;59.34
43621;BME280;29213;50.770;7.298;2022-09-23T02:23:44;101074.25;;;6.84;59.04
43621;BME280;29213;50.770;7.298;2022-09-23T02:26:26;101048.06;;;6.69;58.99
43621;BME280;29213;50.770;7.298;2022-09-23T02:31:39;101080.13;;;6.88;59.14
43621;BME280;29213;50.770;7.298;2022-09-23T02:34:33;101095.03;;;6.89;58.86
43621;BME280;29213;50.770;7.298;2022-09-23T02:40:09;101109.44;;;6.96;59.17
43621;BME280;29213;50.770;7.298;2022-09-23T02:42:38;101110.16;;;6.98;59.25
43621;BME280;29213;50.770;7.298;2022-09-23T02:45:08;101090.44;;;6.91;59.44
43621;BME280;29213;50.770;7.298;2022-09-23T02:47:34;101062.59;;;6.75;59.53
43621;BME280;29213;50.770;7.298;2022-09-23T02:50:04;101069.88;;;6.83;59.61
43621;BME280;29213;50.770;7.298;2022-09-23T02:52:31;101059.97;;;6.75;59.37
43621;BME280;29213;50.770;7.298;2022-09-23T02:54:57;101080.13;;;6.88;59.83
43621;BME280;29213;50.770;7.298;2022-09-23T02:57:25;101052.72;;;6.77;59.57
43621;BME280;29213;50.770;7.298;2022-09-23T02:59:50;101048.41;;;6.76;59.48
43621;BME280;29213;50.770;7.298;2022-09-23T03:05:18;101079.59;;;6.94;59.82
43621;BME280;29213;50.770;7.298;2022-09-23T03:08:18;101043.94;;;6.77;59.60
43621;BME280;29213;50.770;7.298;2022-09-23T03:11:06;101071.09;;;6.90;59.53
43621;BME280;29213;50.770;7.298;2022-09-23T03:13:58;101070.22;;;6.90;59.64
43621;BME280;29213;50.770;7.298;2022-09-23T03:16:36;100988.59;;;6.41;59.44
43621;BME280;29213;50.770;7.298;2022-09-23T03:22:07;101070.03;;;6.81;59.36
43621;BME280;29213;50.770;7.298;2022-09-23T03:24:37;100986.72;;;6.32;59.85
43621;BME280;29213;50.770;7.298;2022-09-23T03:27:07;101024.41;;;6.56;59.78
43621;BME280;29213;50.770;7.298;2022-09-23T03:29:41;101060.28;;;6.82;59.64
43621;BME280;29213;50.770;7.298;2022-09-23T03:32:11;100990.41;;;6.40;59.53
43621;BME280;29213;50.770;7.298;2022-09-23T03:34:38;101020.53;;;6.61;59.61
43621;BME280;29213;50.770;7.298;2022-09-23T03:37:26;101028.94;;;6.66;59.80
43621;BME280;29213;50.770;7.298;2022-09-23T03:40:23;101054.16;;;6.81;59.77
43621;BME280;29213;50.770;7.298;2022-09-23T03:42:52;101028.94;;;6.66;59.63
43621;BME280;29213;50.770;7.298;2022-09-23T03:45:22;100995.22;;;6.47;59.17
43621;BME280;29213;50.770;7.298;2022-09-23T03:47:50;101033.06;;;6.59;59.10
43621;BME280;29213;50.770;7.298;2022-09-23T03:50:16;100957.31;;;6.13;59.31
43621;BME280;29213;50.770;7.298;2022-09-23T03:52:42;101045.53;;;6.68;59.49
43621;BME280;29213;50.770;7.298;2022-09-23T03:55:08;101009.63;;;6.42;59.50
43621;BME280;29213;50.770;7.298;2022-09-23T03:57:37;101042.88;;;6.68;59.38
43621;BME280;29213;50.770;7.298;2022-09-23T04:00:04;100966.56;;;6.19;59.60
43621;BME280;29213;50.770;7.298;2022-09-23T04:02:31;100995.13;;;6.37;59.27
43621;BME280;29213;50.770;7.298;2022-09-23T04:04:56;101006.53;;;6.37;59.38
43621;BME280;29213;50.770;7.298;2022-09-23T04:07:21;101034.66;;;6.50;59.28
43621;BME280;29213;50.770;7.298;2022-09-23T04:09:47;100995.88;;;6.27;59.52
43621;BME280;29213;50.770;7.298;2022-09-23T04:12:13;101041.97;;;6.58;59.46
43621;BME280;29213;50.770;7.298;2022-09-23T04:14:40;101031.56;;;6.45;59.47
43621;BME280;29213;50.770;7.298;2022-09-23T04:17:05;101013.97;;;6.43;59.29
43621;BME280;29213;50.770;7.298;2022-09-23T04:19:31;101043.66;;;6.59;59.81
43621;BME280;29213;50.770;7.298;2022-09-23T04:21:56;101047.25;;;6.58;59.60
43621;BME280;29213;50.770;7.298;2022-09-23T04:24:21;100990.81;;;6.24;59.47
43621;BME280;29213;50.770;7.298;2022-09-23T04:26:52;101042.34;;;6.53;59.52
43621;BME280;29213;50.770;7.298;2022-09-23T04:29:19;100988.53;;;6.20;59.50
43621;BME280;29213;50.770;7.298;2022-09-23T04:31:46;101039.81;;;6.51;59.41
43621;BME280;29213;50.770;7.298;2022-09-23T04:34:11;100981.31;;;6.22;59.65
43621;BME280;29213;50.770;7.298;2022-09-23T04:36:37;100968.28;;;6.09;59.51
43621;BME280;29213;50.770;7.298;2022-09-23T04:39:03;101001.38;;;6.24;59.71
43621;BME280;29213;50.770;7.298;2022-09-23T04:41:28;100979.53;;;6.22;59.62
43621;BME280;29213;50.770;7.298;2022-09-23T04:43:54;100973.31;;;6.12;59.57
43621;BME280;29213;50.770;7.298;2022-09-23T04:46:21;101020.72;;;6.48;59.75
43621;BME280;29213;50.770;7.298;2022-09-23T04:48:47;100989.59;;;6.28;59.71
43621;BME280;29213;50.770;7.298;2022-09-23T04:51:15;100942.34;;;6.02;59.60
43621;BME280;29213;50.770;7.298;2022-09-23T04:53:43;101012.19;;;6.44;59.59
43621;BME280;29213;50.770;7.298;2022-09-23T04:56:23;101008.69;;;6.32;59.45
43621;BME280;29213;50.770;7.298;2022-09-23T04:58:49;101008.59;;;6.34;59.65
43621;BME280;29213;50.770;7.298;2022-09-23T05:03:41;101017.50;;;6.33;59.50
43621;BME280;29213;50.770;7.298;2022-09-23T05:06:08;101012.44;;;6.29;59.55
43621;BME280;29213;50.770;7.298;2022-09-23T05:08:34;101025.53;;;6.31;59.78
43621;BME280;29213;50.770;7.298;2022-09-23T05:11:01;101012.44;;;6.29;59.54
43621;BME280;29213;50.770;7.298;2022-09-23T05:13:29;100969.97;;;5.98;59.63
43621;BME280;29213;50.770;7.298;2022-09-23T05:16:00;101016.06;;;6.28;59.61
43621;BME280;29213;50.770;7.298;2022-09-23T05:18:29;100939.50;;;5.83;65.07
43621;BME280;29213;50.770;7.298;2022-09-23T05:20:55;101023.59;;;6.99;68.65
43621;BME280;29213;50.770;7.298;2022-09-23T05:23:22;101008.13;;;7.25;63.94
43621;BME280;29213;50.770;7.298;2022-09-23T05:25:47;101018.72;;;7.25;60.60
43621;BME280;29213;50.770;7.298;2022-09-23T05:28:14;100973.47;;;6.86;59.81
43621;BME280;29213;50.770;7.298;2022-09-23T05:30:42;100961.56;;;6.70;59.18
43621;BME280;29213;50.770;7.298;2022-09-23T05:33:09;100957.41;;;6.56;59.18
43621;BME280;29213;50.770;7.298;2022-09-23T05:35:34;100912.53;;;6.22;59.04
43621;BME280;29213;50.770;7.298;2022-09-23T05:37:59;100982.53;;;6.62;59.08
43621;BME280;29213;50.770;7.298;2022-09-23T05:40:25;101001.38;;;6.68;59.13
43621;BME280;29213;50.770;7.298;2022-09-23T05:42:50;100992.13;;;6.63;59.21
43621;BME280;29213;50.770;7.298;2022-09-23T05:45:15;101009.31;;;6.68;59.12
43621;BME280;29213;50.770;7.298;2022-09-23T05:47:41;100948.38;;;6.26;59.26
43621;BME280;29213;50.770;7.298;2022-09-23T05:50:08;100988.38;;;6.44;59.39
43621;BME280;29213;50.770;7.298;2022-09-23T05:52:33;100939.66;;;6.14;59.14
43621;BME280;29213;50.770;7.298;2022-09-23T05:54:59;100950.31;;;6.24;59.30
43621;BME280;29213;50.770;7.298;2022-09-23T05:57:24;101001.69;;;6.54;59.37
43621;BME280;29213;50.770;7.298;2022-09-23T05:59:50;100980.78;;;6.39;59.51
43621;BME280;29213;50.770;7.298;2022-09-23T06:02:16;101002.66;;;6.53;59.46
43621;BME280;29213;50.770;7.298;2022-09-23T06:04:41;100897.09;;;5.84;59.59
43621;BME280;29213;50.770;7.298;2022-09-23T06:07:08;100946.50;;;6.16;59.61
43621;BME280;29213;50.770;7.298;2022-09-23T06:09:33;100996.31;;;6.44;59.74
43621;BME280;29213;50.770;7.298;2022-09-23T06:11:59;100926.09;;;6.07;59.48
43621;BME280;29213;50.770;7.298;2022-09-23T06:14:24;101015.06;;;6.74;64.09
43621;BME280;29213;50.770;7.298;2022-09-23T06:16:49;100991.44;;;6.61;60.52
43621;BME280;29213;50.770;7.298;2022-09-23T06:19:15;100929.16;;;6.24;60.01
43621;BME280;29213;50.770;7.298;2022-09-23T06:21:40;100894.59;;;6.04;60.17
43621;BME280;29213;50.770;7.298;2022-09-23T06:24:06;101003.28;;;6.78;60.04
43621;BME280;29213;50.770;7.298;2022-09-23T06:26:32;100930.44;;;6.29;60.08
43621;BME280;29213;50.770;7.298;2022-09-23T06:29:00;100990.53;;;6.72;59.92
43621;BME280;29213;50.770;7.298;2022-09-23T06:31:27;100918.44;;;6.25;59.93
43621;BME280;29213;50.770;7.298;2022-09-23T06:33:53;100992.69;;;6.78;59.99
43621;BME280;29213;50.770;7.298;2022-09-23T06:36:18;101015.78;;;6.97;60.22
43621;BME280;29213;50.770;7.298;2022-09-23T06:38:43;101004.59;;;6.93;59.85
43621;BME280;29213;50.770;7.298;2022-09-23T06:41:10;101018.34;;;7.08;60.10
43621;BME280;29213;50.770;7.298;2022-09-23T06:43:36;100929.59;;;6.62;59.96
43621;BME280;29213;50.770;7.298;2022-09-23T06:46:03;101014.34;;;7.14;60.10
43621;BME280;29213;50.770;7.298;2022-09-23T06:48:29;101018.72;;;7.25;60.06
43621;BME280;29213;50.770;7.298;2022-09-23T06:50:59;100989.00;;;7.21;59.96
43621;BME280;29213;50.770;7.298;2022-09-23T06:53:27;101017.16;;;7.44;59.64
43621;BME280;29213;50.770;7.298;2022-09-23T06:56:04;100969.78;;;7.19;59.27
43621;BME280;29213;50.770;7.298;2022-09-23T06:58:31;100944.72;;;7.02;59.05
43621;BME280;29213;50.770;7.298;2022-09-23T07:01:02;101020.16;;;7.29;59.03
43621;BME280;29213;50.770;7.298;2022-09-23T07:03:28;100849.84;;;6.34;59.19
43621;BME280;29213;50.770;7.298;2022-09-23T07:05:54;100938.75;;;6.79;59.27
43621;BME280;29213;50.770;7.298;2022-09-23T07:08:20;100954.69;;;6.89;59.73
43621;BME280;29213;50.770;7.298;2022-09-23T07:10:51;100985.19;;;7.04;59.18
43621;BME280;29213;50.770;7.298;2022-09-23T07:13:17;100933.00;;;6.74;59.36
43621;BME280;29213;50.770;7.298;2022-09-23T07:15:48;100923.06;;;6.66;59.76
43621;BME280;29213;50.770;7.298;2022-09-23T07:18:15;100949.66;;;6.86;59.51
43621;BME280;29213;50.770;7.298;2022-09-23T07:20:40;100949.78;;;7.05;59.57
43621;BME280;29213;50.770;7.298;2022-09-23T07:23:05;101024.94;;;7.67;59.48
43621;BME280;29213;50.770;7.298;2022-09-23T07:25:31;101028.47;;;7.87;58.69
43621;BME280;29213;50.770;7.298;2022-09-23T07:27:58;101028.13;;;8.01;58.57
43621;BME280;29213;50.770;7.298;2022-09-23T07:30:23;101022.72;;;8.13;58.10
43621;BME280;29213;50.770;7.298;2022-09-23T07:32:49;100935.47;;;7.69;58.15
43621;BME280;29213;50.770;7.298;2022-09-23T07:35:14;100950.19;;;7.93;57.87
43621;BME280;29213;50.770;7.298;2022-09-23T07:37:41;101020.94;;;8.43;57.07
43621;BME280;29213;50.770;7.298;2022-09-23T07:40:06;100962.09;;;8.08;57.45
43621;BME280;29213;50.770;7.298;2022-09-23T07:42:32;100902.00;;;7.77;57.33
43621;BME280;29213;50.770;7.298;2022-09-23T07:44:57;101002.75;;;8.58;58.04
43621;BME280;29213;50.770;7.298;2022-09-23T07:47:22;101018.81;;;8.86;57.05
43621;BME280;29213;50.770;7.298;2022-09-23T07:49:48;101004.56;;;8.77;56.09
43621;BME280;29213;50.770;7.298;2022-09-23T07:52:13;101004.72;;;8.86;55.98
43621;BME280;29213;50.770;7.298;2022-09-23T07:54:39;101022.13;;;9.08;55.93
43621;BME280;29213;50.770;7.298;2022-09-23T07:57:04;100981.47;;;8.98;55.98
43621;BME280;29213;50.770;7.298;2022-09-23T07:59:30;101023.63;;;9.20;55.52
43621;BME280;29213;50.770;7.298;2022-09-23T08:01:56;101029.75;;;9.31;55.22
43621;BME280;29213;50.770;7.298;2022-09-23T08:04:28;100985.56;;;9.30;55.62
43621;BME280;29213;50.770;7.298;2022-09-23T08:06:58;101017.63;;;9.66;55.24
43621;BME280;29213;50.770;7.298;2022-09-23T08:09:28;100945.69;;;9.30;54.60
43621;BME280;29213;50.770;7.298;2022-09-23T08:11:54;101013.09;;;9.76;54.50
43621;BME280;29213;50.770;7.298;2022-09-23T08:14:20;100896.66;;;9.14;54.45
43621;BME280;29213;50.770;7.298;2022-09-23T08:16:46;101007.84;;;10.13;54.98
43621;BME280;29213;50.770;7.298;2022-09-23T08:19:12;101011.72;;;10.37;54.74
43621;BME280;29213;50.770;7.298;2022-09-23T08:21:39;101009.75;;;10.57;54.30
43621;BME280;29213;50.770;7.298;2022-09-23T08:24:07;101017.34;;;10.70;54.01
43621;BME280;29213;50.770;7.298;2022-09-23T08:26:35;100961.59;;;10.50;53.66
43621;BME280;29213;50.770;7.298;2022-09-23T08:29:03;100981.50;;;10.82;53.75
43621;BME280;29213;50.770;7.298;2022-09-23T08:31:28;101002.38;;;11.14;53.01
43621;BME280;29213;50.770;7.298;2022-09-23T08:33:57;100992.53;;;11.14;52.78
43621;BME280;29213;50.770;7.298;2022-09-23T08:36:24;100950.47;;;11.00;52.41
43621;BME280;29213;50.770;7.298;2022-09-23T08:38:49;100990.03;;;11.47;52.35
43621;BME280;29213;50.770;7.298;2022-09-23T08:41:24;100947.28;;;11.31;52.03
43621;BME280;29213;50.770;7.298;2022-09-23T08:43:56;100935.50;;;11.42;51.25
43621;BME280;29213;50.770;7.298;2022-09-23T08:46:30;100955.75;;;11.69;51.90
43621;BME280;29213;50.770;7.298;2022-09-23T08:48:58;100968.06;;;11.97;52.33
43621;BME280;29213;50.770;7.298;2022-09-23T08:51:32;100918.25;;;11.71;51.11
43621;BME280;29213;50.770;7.298;2022-09-23T08:53:59;100972.22;;;12.08;50.89
43621;BME280;29213;50.770;7.298;2022-09-23T08:56:27;100949.88;;;12.09;51.30
43621;BME280;29213;50.770;7.298;2022-09-23T08:59:08;100983.31;;;12.38;49.89
43621;BME280;29213;50.770;7.298;2022-09-23T09:04:07;100978.28;;;12.35;49.25
43621;BME280;29213;50.770;7.298;2022-09-23T09:06:40;100959.06;;;12.23;50.03
43621;BME280;29213;50.770;7.298;2022-09-23T09:09:18;100886.59;;;11.84;50.23
43621;BME280;29213;50.770;7.298;2022-09-23T09:11:48;100942.38;;;12.29;50.78
43621;BME280;29213;50.770;7.298;2022-09-23T09:17:04;100973.94;;;12.67;51.69
43621;BME280;29213;50.770;7.298;2022-09-23T09:19:55;100975.78;;;12.75;51.71
43621;BME280;29213;50.770;7.298;2022-09-23T09:25:24;100864.78;;;12.14;51.45
43621;BME280;29213;50.770;7.298;2022-09-23T09:27:53;100972.56;;;12.88;51.16
43621;BME280;29213;50.770;7.298;2022-09-23T09:30:20;100915.66;;;12.54;50.30
43621;BME280;29213;50.770;7.298;2022-09-23T09:32:53;100955.53;;;12.80;50.77
43621;BME280;29213;50.770;7.298;2022-09-23T09:38:17;100964.06;;;12.92;51.04
43621;BME280;29213;50.770;7.298;2022-09-23T09:40:47;100897.63;;;12.64;51.01
43621;BME280;29213;50.770;7.298;2022-09-23T09:43:16;100891.94;;;12.59;51.64
43621;BME280;29213;50.770;7.298;2022-09-23T09:46:05;100876.41;;;12.54;51.59
43621;BME280;29213;50.770;7.298;2022-09-23T09:48:49;100954.97;;;13.18;51.78
43621;BME280;29213;50.770;7.298;2022-09-23T09:51:22;100965.50;;;13.20;51.42
43621;BME280;29213;50.770;7.298;2022-09-23T09:53:49;100917.75;;;13.00;51.59
43621;BME280;29213;50.770;7.298;2022-09-23T09:56:23;100898.19;;;13.00;51.78
43621;BME280;29213;50.770;7.298;2022-09-23T09:59:00;100955.91;;;13.34;51.71
43621;BME280;29213;50.770;7.298;2022-09-23T10:01:31;100951.91;;;13.38;51.65
43621;BME280;29213;50.770;7.298;2022-09-23T10:03:59;100922.53;;;13.21;49.66
43621;BME280;29213;50.770;7.298;2022-09-23T10:06:27;100945.75;;;13.29;48.54
43621;BME280;29213;50.770;7.298;2022-09-23T10:09:11;100945.53;;;13.39;49.78
43621;BME280;29213;50.770;7.298;2022-09-23T10:11:39;100888.47;;;13.15;49.82
43621;BME280;29213;50.770;7.298;2022-09-23T10:14:14;100933.63;;;13.50;49.67
43621;BME280;29213;50.770;7.298;2022-09-23T10:16:42;100913.75;;;13.44;50.60
43621;BME280;29213;50.770;7.298;2022-09-23T10:21:50;100932.84;;;13.73;52.19
43621;BME280;29213;50.770;7.298;2022-09-23T10:24:23;100926.66;;;13.96;53.89
43621;BME280;29213;50.770;7.298;2022-09-23T10:26:55;100854.13;;;13.59;49.31
43621;BME280;29213;50.770;7.298;2022-09-23T10:31:48;100883.09;;;13.79;50.15
43621;BME280;29213;50.770;7.298;2022-09-23T10:34:27;100881.75;;;13.83;47.26
43621;BME280;29213;50.770;7.298;2022-09-23T10:37:12;100865.50;;;13.84;50.70
43621;BME280;29213;50.770;7.298;2022-09-23T10:39:39;100910.97;;;14.16;47.98
43621;BME280;29213;50.770;7.298;2022-09-23T10:45:49;100847.72;;;14.15;49.22
43621;BME280;29213;50.770;7.298;2022-09-23T10:48:55;100920.09;;;14.45;47.81
43621;BME280;29213;50.770;7.298;2022-09-23T10:54:20;100916.69;;;14.51;47.51
43621;BME280;29213;50.770;7.298;2022-09-23T10:56:52;100816.00;;;14.03;47.70
43621;BME280;29213;50.770;7.298;2022-09-23T11:02:23;100914.97;;;14.74;46.81
43621;BME280;29213;50.770;7.298;2022-09-23T11:05:17;100914.41;;;14.78;45.68
43621;BME280;29213;50.770;7.298;2022-09-23T11:14:01;100902.44;;;15.04;46.89
43621;BME280;29213;50.770;7.298;2022-09-23T11:22:21;100886.66;;;15.31;46.39
43621;BME280;29213;50.770;7.298;2022-09-23T11:39:22;100855.78;;;15.79;43.55
43621;BME280;29213;50.770;7.298;2022-09-23T11:41:52;100807.59;;;15.49;40.07
43621;BME280;29213;50.770;7.298;2022-09-23T11:44:31;100862.88;;;15.87;40.19
43621;BME280;29213;50.770;7.298;2022-09-23T11:47:05;100856.63;;;16.01;40.63
43621;BME280;29213;50.770;7.298;2022-09-23T11:49:46;100856.31;;;16.11;39.31
43621;BME280;29213;50.770;7.298;2022-09-23T11:52:32;100800.06;;;15.88;40.07
43621;BME280;29213;50.770;7.298;2022-09-23T11:57:42;100797.19;;;16.11;40.45
43621;BME280;29213;50.770;7.298;2022-09-23T12:00:17;100746.13;;;15.83;40.03
43621;BME280;29213;50.770;7.298;2022-09-23T12:05:32;100782.78;;;16.19;42.75
43621;BME280;29213;50.770;7.298;2022-09-23T12:08:13;100822.19;;;16.40;44.35
43621;BME280;29213;50.770;7.298;2022-09-23T12:19:04;100833.69;;;16.98;44.53
43621;BME280;29213;50.770;7.298;2022-09-23T12:21:59;100836.78;;;17.02;44.22
43621;BME280;29213;50.770;7.298;2022-09-23T12:24:39;100840.53;;;17.07;44.60
43621;BME280;29213;50.770;7.298;2022-09-23T12:27:14;100787.25;;;16.82;44.85
43621;BME280;29213;50.770;7.298;2022-09-23T12:29:43;100814.03;;;17.04;44.62
43621;BME280;29213;50.770;7.298;2022-09-23T12:32:16;100815.50;;;17.07;43.70
43621;BME280;29213;50.770;7.298;2022-09-23T12:34:45;100826.28;;;17.20;43.75
43621;BME280;29213;50.770;7.298;2022-09-23T12:37:25;100794.78;;;17.01;43.52
43621;BME280;29213;50.770;7.298;2022-09-23T12:39:52;100818.41;;;17.12;41.40
43621;BME280;29213;50.770;7.298;2022-09-23T12:42:19;100810.94;;;17.07;42.60
43621;BME280;29213;50.770;7.298;2022-09-23T12:44:47;100813.22;;;17.11;43.39
43621;BME280;29213;50.770;7.298;2022-09-23T12:49:38;100700.47;;;16.53;43.84
43621;BME280;29213;50.770;7.298;2022-09-23T12:54:45;100740.44;;;16.77;42.79
43621;BME280;29213;50.770;7.298;2022-09-23T12:57:12;100818.06;;;17.29;42.54
43621;BME280;29213;50.770;7.298;2022-09-23T13:04:59;100771.22;;;17.09;42.78
43621;BME280;29213;50.770;7.298;2022-09-23T13:07:48;100787.59;;;17.21;38.61
43621;BME280;29213;50.770;7.298;2022-09-23T13:10:17;100774.31;;;17.06;41.23
43621;BME280;29213;50.770;7.298;2022-09-23T13:12:45;100756.06;;;16.95;42.08
43621;BME280;29213;50.770;7.298;2022-09-23T13:15:32;100768.13;;;17.06;42.69
43621;BME280;29213;50.770;7.298;2022-09-23T13:20:48;100714.44;;;16.91;42.97
43621;BME280;29213;50.770;7.298;2022-09-23T13:25:48;100740.59;;;17.11;42.92
43621;BME280;29213;50.770;7.298;2022-09-23T13:30:52;100707.25;;;16.98;42.06
43621;BME280;29213;50.770;7.298;2022-09-23T13:33:26;100781.00;;;17.44;42.56
43621;BME280;29213;50.770;7.298;2022-09-23T13:35:56;100748.69;;;17.17;42.38
43621;BME280;29213;50.770;7.298;2022-09-23T13:38:26;100786.38;;;17.38;42.96
43621;BME280;29213;50.770;7.298;2022-09-23T13:41:06;100734.16;;;17.05;42.38
43621;BME280;29213;50.770;7.298;2022-09-23T13:43:36;100699.78;;;16.87;42.58
43621;BME280;29213;50.770;7.298;2022-09-23T13:46:09;100779.53;;;17.28;42.23
43621;BME280;29213;50.770;7.298;2022-09-23T13:48:37;100734.16;;;17.05;43.53
43621;BME280;29213;50.770;7.298;2022-09-23T13:51:09;100780.81;;;17.39;44.15
43621;BME280;29213;50.770;7.298;2022-09-23T13:53:35;100770.25;;;17.38;43.22
43621;BME280;29213;50.770;7.298;2022-09-23T13:56:06;100712.63;;;16.98;43.99
43621;BME280;29213;50.770;7.298;2022-09-23T13:58:36;100770.22;;;17.44;44.09
43621;BME280;29213;50.770;7.298;2022-09-23T14:01:01;100713.88;;;17.09;43.20
43621;BME280;29213;50.770;7.298;2022-09-23T14:03:31;100763.59;;;17.33;41.30
43621;BME280;29213;50.770;7.298;2022-09-23T14:05:57;100758.41;;;17.32;41.07
43621;BME280;29213;50.770;7.298;2022-09-23T14:08:24;100706.81;;;17.01;42.78
43621;BME280;29213;50.770;7.298;2022-09-23T14:10:50;100716.38;;;17.11;43.17
43621;BME280;29213;50.770;7.298;2022-09-23T14:13:27;100655.00;;;16.72;42.94
43621;BME280;29213;50.770;7.298;2022-09-23T14:15:56;100709.50;;;17.01;43.66
43621;BME280;29213;50.770;7.298;2022-09-23T14:18:38;100641.31;;;16.60;43.49
43621;BME280;29213;50.770;7.298;2022-09-23T14:21:04;100744.97;;;17.32;43.48
43621;BME280;29213;50.770;7.298;2022-09-23T14:23:30;100744.34;;;17.30;43.62
43621;BME280;29213;50.770;7.298;2022-09-23T14:25:57;100742.88;;;17.27;43.70
43621;BME280;29213;50.770;7.298;2022-09-23T14:28:25;100667.88;;;16.83;43.35
43621;BME280;29213;50.770;7.298;2022-09-23T14:30:53;100684.06;;;16.90;43.49
43621;BME280;29213;50.770;7.298;2022-09-23T14:33:31;100668.69;;;16.77;44.05
43621;BME280;29213;50.770;7.298;2022-09-23T14:36:03;100690.25;;;16.91;43.77
43621;BME280;29213;50.770;7.298;2022-09-23T14:38:32;100725.06;;;17.06;44.44
43621;BME280;29213;50.770;7.298;2022-09-23T14:41:22;100731.28;;;17.13;44.63
43621;BME280;29213;50.770;7.298;2022-09-23T14:43:56;100634.47;;;16.44;44.58
43621;BME280;29213;50.770;7.298;2022-09-23T14:46:30;100726.50;;;17.02;44.84
43621;BME280;29213;50.770;7.298;2022-09-23T14:56:54;100674.63;;;16.59;45.39
43621;BME280;29213;50.770;7.298;2022-09-23T14:59:47;100709.69;;;16.86;45.09
43621;BME280;29213;50.770;7.298;2022-09-23T15:05:15;100708.81;;;16.79;45.37
43621;BME280;29213;50.770;7.298;2022-09-23T15:07:43;100701.75;;;16.71;45.75
43621;BME280;29213;50.770;7.298;2022-09-23T15:10:22;100692.41;;;16.60;45.55
43621;BME280;29213;50.770;7.298;2022-09-23T15:12:49;100689.53;;;16.62;46.09
43621;BME280;29213;50.770;7.298;2022-09-23T15:15:16;100646.66;;;16.33;46.20
43621;BME280;29213;50.770;7.298;2022-09-23T15:17:43;100666.50;;;16.39;46.08